A08

Vaiden Field Airport

Marion, Alabama, USA
METAR KA08 241915Z AUTO 00000KT 7SM -RA SCT036 BKN080 OVC110 28/23 A2997 RMK AO2 P0002 T02750231
Observed Flight Rules
Sep-24 @ 19:15 UTC (33 minutes ago) Visual Flight Rules
Visibility Clouds Conditions
7 miles
  • Scattered at 3,600' AGL
  • Broken at 8,000' AGL
  • Overcast at 11,000' AGL
  • Light Rain
Temperatures Readings Precipitation
Current 28°C / 82°F
Dewpoint 23°C / 73°F
Humidity 74%
Altimeter 29.97" Hg
Pressure 1015 hPa
Elevation 69
Current Rain 0.02
METAR KA08 241915Z AUTO 00000KT 7SM -RA SCT036 BKN080 OVC110 28/23 A2997 RMK AO2 P0002 T02750231
Observed Flight Rules
Sep-24 @ 19:15 UTC
(33 minutes ago)
VFR
Clouds
  • Scattered at 3,600' AGL
  • Broken at 8,000' AGL
  • Overcast at 11,000' AGL
Conditions
  • Light Rain
Temperature Dewpoint
28°C / 82°F 23°C / 73°F
Humidity Altimeter Pressure
74% 29.97" Hg 1015 hPa
Current Rain
0.02